Time;durP1;ratioP1;P1;durP2;ratioP2;P2;SDS_P1;SDS_P2;PMS_P1;PMS_P2;Temp;Humidity;BMP_temperature;BMP_pressure;BME280_temperature;BME280_humidity;BME280_pressure;Samples;Min_cycle;Max_cycle;Signal;HPM_P1;HPM_P2
2023/04/27 00:04:52;;;;;;;6.73;2.90;;;8.60;91.20;;;;;;10434999;28;20270;-70
2023/04/27 00:09:53;;;;;;;8.77;3.50;;;8.60;91.60;;;;;;10421677;28;20215;-71
2023/04/27 00:14:55;;;;;;;10.43;4.03;;;8.60;92.10;;;;;;10425207;28;20216;-75
2023/04/27 00:19:56;;;;;;;8.20;3.70;;;8.50;92.30;;;;;;10425691;28;20292;-76
2023/04/27 00:24:56;;;;;;;8.57;3.57;;;8.50;92.70;;;;;;10421454;28;20902;-76
2023/04/27 00:29:57;;;;;;;7.43;3.67;;;8.50;93.10;;;;;;10427326;28;20310;-72
2023/04/27 00:34:58;;;;;;;8.83;3.30;;;8.40;93.30;;;;;;10415327;28;20215;-71
2023/04/27 00:40:00;;;;;;;9.63;3.43;;;8.30;93.10;;;;;;10417559;28;20244;-76
2023/04/27 00:45:02;;;;;;;4.10;2.87;;;8.30;93.10;;;;;;10413368;28;20220;-71
2023/04/27 00:50:03;;;;;;;5.17;2.97;;;8.20;93.40;;;;;;10422094;28;20688;-70
2023/04/27 00:55:04;;;;;;;4.87;3.00;;;8.10;95.10;;;;;;10427578;28;20219;-70
2023/04/27 01:00:12;;;;;;;6.17;3.17;;;7.90;95.50;;;;;;10419493;28;20290;-72
2023/04/27 01:05:12;;;;;;;4.67;3.13;;;7.70;96.40;;;;;;10413771;28;20319;-72
2023/04/27 01:10:16;;;;;;;6.40;3.50;;;7.50;98.00;;;;;;10431128;28;20207;-79
2023/04/27 01:15:16;;;;;;;6.73;3.40;;;7.40;99.90;;;;;;10438825;28;20207;-79
2023/04/27 01:20:18;;;;;;;5.37;3.00;;;7.30;99.90;;;;;;10432417;28;20303;-75
2023/04/27 01:25:19;;;;;;;8.03;3.77;;;7.20;99.90;;;;;;10427717;28;20553;-74
2023/04/27 01:30:21;;;;;;;6.10;3.00;;;7.10;99.90;;;;;;10435297;28;20172;-73
2023/04/27 01:35:22;;;;;;;6.93;3.40;;;7.20;99.90;;;;;;10426583;28;20180;-73
2023/04/27 01:40:22;;;;;;;7.80;3.63;;;7.30;99.90;;;;;;10427678;28;20176;-73
2023/04/27 01:45:23;;;;;;;8.67;3.43;;;7.30;99.90;;;;;;10427682;28;20188;-73
2023/04/27 01:50:24;;;;;;;9.23;3.73;;;7.20;99.90;;;;;;10434876;28;20216;-80
2023/04/27 01:55:24;;;;;;;4.80;3.30;;;7.10;99.90;;;;;;10426147;28;20221;-76
2023/04/27 02:00:25;;;;;;;11.07;3.90;;;7.00;99.90;;;;;;10424949;28;20781;-73
2023/04/27 02:05:26;;;;;;;7.63;3.93;;;7.00;99.90;;;;;;10430222;28;20624;-71
2023/04/27 02:10:26;;;;;;;5.03;3.63;;;6.90;99.90;;;;;;10430065;28;20224;-73
2023/04/27 02:15:27;;;;;;;8.27;3.80;;;6.90;99.90;;;;;;10427126;28;20224;-73
2023/04/27 02:20:31;;;;;;;7.20;4.23;;;6.70;99.90;;;;;;10430014;28;20233;-71
2023/04/27 02:25:35;;;;;;;4.60;3.63;;;6.70;99.90;;;;;;10426186;28;20228;-72
2023/04/27 02:30:36;;;;;;;7.20;4.10;;;6.70;99.90;;;;;;10418962;28;20220;-79
2023/04/27 02:35:37;;;;;;;7.20;4.27;;;6.70;99.90;;;;;;10420584;28;20307;-78
2023/04/27 02:40:39;;;;;;;7.07;4.27;;;6.60;99.90;;;;;;10425929;28;20299;-81
2023/04/27 02:45:39;;;;;;;9.13;4.63;;;6.60;99.90;;;;;;10432814;28;20255;-71
2023/04/27 02:50:44;;;;;;;8.40;3.90;;;6.50;99.90;;;;;;10412211;28;20224;-79
2023/04/27 02:55:47;;;;;;;6.90;3.90;;;6.50;99.90;;;;;;10424979;28;20780;-78
2023/04/27 03:00:53;;;;;;;6.23;4.20;;;6.50;99.90;;;;;;10427349;28;20303;-79
2023/04/27 03:05:53;;;;;;;5.10;4.07;;;6.50;99.90;;;;;;10427800;28;20232;-74
2023/04/27 03:10:54;;;;;;;7.97;4.30;;;6.30;99.90;;;;;;10425162;28;20220;-73
2023/04/27 03:15:55;;;;;;;9.63;4.47;;;6.30;99.90;;;;;;10430623;28;20262;-73
2023/04/27 03:21:10;;;;;;;6.83;4.00;;;6.20;99.90;;;;;;10420213;28;20277;-72
2023/04/27 03:26:12;;;;;;;6.17;4.40;;;6.20;99.90;;;;;;10415002;28;20251;-72
2023/04/27 03:31:16;;;;;;;7.50;4.20;;;6.20;99.90;;;;;;10430052;28;20953;-74
2023/04/27 03:36:16;;;;;;;6.80;4.00;;;6.20;99.90;;;;;;10423669;28;20259;-75
2023/04/27 03:41:17;;;;;;;8.20;4.60;;;6.20;99.90;;;;;;10430040;28;20207;-73
2023/04/27 03:46:18;;;;;;;8.37;4.73;;;6.20;99.90;;;;;;10416208;28;20224;-77
2023/04/27 03:51:18;;;;;;;6.67;4.23;;;6.20;99.90;;;;;;10423023;28;20212;-74
2023/04/27 03:56:19;;;;;;;6.67;4.40;;;6.30;99.90;;;;;;10414250;28;20252;-77
2023/04/27 04:01:23;;;;;;;7.93;4.17;;;6.30;99.90;;;;;;10427214;28;20223;-75
2023/04/27 04:06:24;;;;;;;7.87;4.03;;;6.40;99.90;;;;;;10422561;28;20722;-72
2023/04/27 04:11:29;;;;;;;7.47;4.33;;;6.50;99.90;;;;;;10428348;28;20223;-78
2023/04/27 04:16:32;;;;;;;8.93;4.63;;;6.40;99.90;;;;;;10421342;28;20224;-71
2023/04/27 04:21:33;;;;;;;9.17;4.23;;;6.40;99.90;;;;;;10425115;28;20227;-75
2023/04/27 04:26:38;;;;;;;6.93;4.10;;;6.50;99.90;;;;;;10429131;28;20254;-76
2023/04/27 04:31:38;;;;;;;6.53;3.93;;;6.50;99.90;;;;;;10423883;28;20363;-72
2023/04/27 04:36:39;;;;;;;9.10;4.53;;;6.60;99.90;;;;;;10428753;28;20369;-73
2023/04/27 04:41:40;;;;;;;7.40;3.73;;;6.70;99.90;;;;;;10421673;28;20349;-74
2023/04/27 04:46:41;;;;;;;6.83;3.97;;;6.80;99.90;;;;;;10430144;28;20239;-76
2023/04/27 04:51:43;;;;;;;10.00;4.77;;;6.90;99.90;;;;;;10433925;28;20220;-75
2023/04/27 04:56:44;;;;;;;9.63;4.03;;;6.90;99.90;;;;;;10432767;28;20227;-76
2023/04/27 05:01:45;;;;;;;7.83;4.33;;;6.80;99.90;;;;;;10429792;28;20235;-76
2023/04/27 05:06:46;;;;;;;9.47;5.20;;;6.90;99.90;;;;;;10432951;28;20223;-73
2023/04/27 05:11:46;;;;;;;10.27;5.50;;;7.10;99.90;;;;;;10411244;28;20238;-73
2023/04/27 05:16:48;;;;;;;8.23;5.20;;;7.20;99.90;;;;;;10432360;28;20238;-73
2023/04/27 05:21:48;;;;;;;9.90;5.13;;;7.40;99.90;;;;;;10420006;28;20252;-74
2023/04/27 05:26:49;;;;;;;12.93;5.47;;;7.50;99.90;;;;;;10431955;28;20302;-74
2023/04/27 05:31:50;;;;;;;11.80;6.03;;;7.90;99.90;;;;;;10430099;28;20927;-77
2023/04/27 05:36:51;;;;;;;14.27;6.53;;;8.70;99.90;;;;;;10434252;28;20227;-75
2023/04/27 05:41:52;;;;;;;12.70;5.07;;;8.70;99.90;;;;;;10440444;28;20216;-73
2023/04/27 05:46:53;;;;;;;6.50;4.30;;;8.90;99.90;;;;;;10418773;28;20227;-74
2023/04/27 05:51:54;;;;;;;11.93;5.37;;;9.10;99.90;;;;;;10429937;28;20220;-74
2023/04/27 05:56:55;;;;;;;16.37;5.57;;;9.10;99.90;;;;;;10427884;28;20216;-73
2023/04/27 06:01:55;;;;;;;9.93;5.07;;;9.10;99.90;;;;;;10431708;28;20700;-75
2023/04/27 06:06:56;;;;;;;15.07;6.10;;;9.00;99.90;;;;;;10426760;28;20220;-72
2023/04/27 06:11:58;;;;;;;14.10;5.90;;;10.50;99.90;;;;;;10426836;28;20220;-73
2023/04/27 06:16:59;;;;;;;13.17;5.27;;;13.10;99.90;;;;;;10426450;28;20266;-76
2023/04/27 06:21:59;;;;;;;11.73;5.10;;;14.70;97.10;;;;;;10431788;28;20251;-75
2023/04/27 06:27:00;;;;;;;14.50;5.83;;;15.50;92.90;;;;;;10425805;28;20219;-77
2023/04/27 06:32:04;;;;;;;12.00;5.53;;;16.10;87.20;;;;;;10424948;28;20216;-74
2023/04/27 06:37:05;;;;;;;8.73;4.20;;;17.10;80.00;;;;;;10421464;28;20216;-74
2023/04/27 06:42:05;;;;;;;7.87;3.80;;;17.60;73.30;;;;;;10421426;28;20742;-76
2023/04/27 06:47:06;;;;;;;9.37;3.77;;;18.20;68.10;;;;;;10432231;28;20647;-75
2023/04/27 06:52:07;;;;;;;10.93;4.10;;;16.90;68.00;;;;;;10422010;28;20370;-75
2023/04/27 06:57:07;;;;;;;9.40;2.90;;;15.10;73.90;;;;;;10430553;28;20657;-75
2023/04/27 07:02:08;;;;;;;6.40;3.00;;;13.90;76.20;;;;;;10407021;28;20291;-75
2023/04/27 07:07:09;;;;;;;7.27;2.80;;;13.20;77.20;;;;;;10429453;28;20224;-74
2023/04/27 07:12:09;;;;;;;5.53;2.90;;;12.90;79.00;;;;;;10420763;28;20232;-74
2023/04/27 07:17:10;;;;;;;5.20;2.77;;;13.10;80.40;;;;;;10428040;28;20576;-75
2023/04/27 07:22:18;;;;;;;6.23;2.70;;;13.90;76.60;;;;;;10571587;27;20576;-74
2023/04/27 07:27:20;;;;;;;6.20;3.23;;;14.90;72.70;;;;;;10530435;28;20660;-75
2023/04/27 07:32:21;;;;;;;6.67;2.73;;;15.30;70.00;;;;;;10524219;28;20407;-74
2023/04/27 07:37:22;;;;;;;4.10;2.70;;;16.20;65.90;;;;;;10529089;28;20287;-74
2023/04/27 07:42:23;;;;;;;7.97;2.83;;;16.30;63.60;;;;;;10531143;28;20210;-75
2023/04/27 07:47:24;;;;;;;9.13;2.50;;;16.40;63.10;;;;;;10524322;28;20917;-74
2023/04/27 07:52:25;;;;;;;5.40;2.57;;;16.20;61.50;;;;;;10529983;28;20994;-75
2023/04/27 07:57:25;;;;;;;8.23;3.00;;;16.50;62.20;;;;;;10525383;28;20731;-75
2023/04/27 08:02:30;;;;;;;6.33;2.30;;;17.00;61.50;;;;;;10545461;28;20719;-74
2023/04/27 08:07:32;;;;;;;5.17;2.43;;;17.10;59.60;;;;;;10542992;28;20256;-74
2023/04/27 08:12:33;;;;;;;5.40;2.33;;;17.80;58.80;;;;;;10520945;28;20214;-74
2023/04/27 08:17:35;;;;;;;6.93;2.50;;;18.40;56.90;;;;;;10525356;28;20262;-75
2023/04/27 08:22:36;;;;;;;4.17;2.10;;;18.60;55.90;;;;;;10524808;28;20222;-74
2023/04/27 08:27:40;;;;;;;6.37;2.70;;;20.70;52.50;;;;;;10543085;28;20693;-76
2023/04/27 08:32:41;;;;;;;5.50;2.53;;;23.20;47.40;;;;;;10502893;28;20258;-74
2023/04/27 08:37:41;;;;;;;6.37;2.50;;;23.20;45.00;;;;;;10502803;28;20257;-74
2023/04/27 08:42:54;;;;;;;4.63;2.43;;;24.50;41.60;;;;;;10504255;28;20318;-75
2023/04/27 08:47:55;;;;;;;7.77;2.80;;;24.90;41.20;;;;;;10498734;28;20246;-74
2023/04/27 08:52:56;;;;;;;6.13;2.30;;;27.00;38.00;;;;;;10510711;28;20764;-74
2023/04/27 08:57:57;;;;;;;7.93;2.77;;;25.60;37.40;;;;;;10524115;28;20560;-74
2023/04/27 09:03:02;;;;;;;6.53;2.33;;;25.60;37.00;;;;;;10491845;28;20310;-74
2023/04/27 09:08:08;;;;;;;7.83;2.83;;;26.60;36.40;;;;;;10498509;28;20214;-74
2023/04/27 09:13:09;;;;;;;6.13;2.67;;;27.10;34.80;;;;;;10498764;28;20705;-75
2023/04/27 09:18:20;;;;;;;8.00;2.80;;;26.10;34.90;;;;;;10516302;28;20234;-74
2023/04/27 09:23:32;;;;;;;5.47;2.90;;;26.10;34.80;;;;;;10504407;28;20214;-75
2023/04/27 09:28:37;;;;;;;8.27;3.00;;;26.20;34.90;;;;;;10507878;28;20212;-74
2023/04/27 09:33:38;;;;;;;9.07;3.03;;;25.60;35.00;;;;;;10494144;28;20308;-74
2023/04/27 09:38:39;;;;;;;3.87;2.30;;;28.00;34.30;;;;;;10499366;28;20727;-75
2023/04/27 09:43:44;;;;;;;6.80;2.40;;;30.80;31.70;;;;;;10493196;28;20217;-75
2023/04/27 09:48:45;;;;;;;5.97;3.20;;;32.40;29.60;;;;;;10499498;28;20245;-74
2023/04/27 09:53:52;;;;;;;6.03;2.67;;;29.90;28.40;;;;;;10512384;28;20576;-74
2023/04/27 09:59:20;;;;;;;5.20;2.33;;;30.50;30.00;;;;;;10509079;28;20265;-75
2023/04/27 10:04:58;;;;;;;5.70;3.13;;;33.10;28.10;;;;;;10490777;28;20216;-75
2023/04/27 10:10:03;;;;;;;4.97;2.60;;;35.20;26.10;;;;;;10507583;28;20215;-75
2023/04/27 10:15:13;;;;;;;6.37;2.83;;;34.80;25.80;;;;;;10497402;28;20701;-73
2023/04/27 10:20:14;;;;;;;6.37;3.10;;;35.90;24.80;;;;;;10488318;28;20227;-73
2023/04/27 10:25:20;;;;;;;7.33;2.80;;;35.10;24.70;;;;;;10494983;28;20193;-74
2023/04/27 10:30:24;;;;;;;8.73;3.10;;;35.50;24.50;;;;;;10489789;28;20210;-74
2023/04/27 10:35:39;;;;;;;5.20;2.97;;;35.80;24.90;;;;;;10493585;28;20221;-74
2023/04/27 10:40:40;;;;;;;6.43;2.43;;;35.80;24.00;;;;;;10495636;28;20716;-74
2023/04/27 10:45:42;;;;;;;6.80;2.60;;;34.70;25.70;;;;;;10511743;28;20214;-74
2023/04/27 10:50:44;;;;;;;9.20;3.30;;;30.80;27.60;;;;;;10502200;28;20275;-73
2023/04/27 10:55:45;;;;;;;5.93;3.00;;;32.20;27.50;;;;;;10489630;28;20725;-76
2023/04/27 11:00:46;;;;;;;6.57;2.60;;;33.30;26.20;;;;;;10502463;28;20227;-75
2023/04/27 11:05:48;;;;;;;4.13;2.63;;;33.20;26.40;;;;;;10510182;28;20219;-73
2023/04/27 11:10:50;;;;;;;3.53;2.23;;;33.70;26.00;;;;;;10496005;28;20222;-74
2023/04/27 11:15:57;;;;;;;6.23;2.60;;;32.30;26.90;;;;;;10512067;28;20218;-72
2023/04/27 11:21:08;;;;;;;7.20;3.33;;;30.80;28.40;;;;;;10513751;28;20322;-75
2023/04/27 11:26:10;;;;;;;8.97;3.20;;;28.60;29.50;;;;;;10513802;28;20259;-74
2023/04/27 11:31:11;;;;;;;4.97;3.07;;;26.80;31.60;;;;;;10487000;28;20220;-74
2023/04/27 11:36:16;;;;;;;7.47;3.43;;;25.40;32.70;;;;;;10512307;28;20211;-74
2023/04/27 11:41:18;;;;;;;6.23;3.20;;;24.00;34.50;;;;;;10495142;28;20633;-75
2023/04/27 11:46:21;;;;;;;4.63;2.70;;;23.90;37.40;;;;;;10511080;28;20697;-74
2023/04/27 11:51:23;;;;;;;7.07;2.87;;;23.70;36.10;;;;;;10505302;28;20225;-73
2023/04/27 11:56:33;;;;;;;4.70;2.40;;;23.60;36.70;;;;;;10493495;28;20933;-74
2023/04/27 12:01:34;;;;;;;6.43;3.03;;;24.00;36.70;;;;;;10497002;28;20250;-75
2023/04/27 12:06:38;;;;;;;9.00;2.80;;;23.70;36.70;;;;;;10517699;28;20250;-74
2023/04/27 12:11:38;;;;;;;5.70;3.23;;;23.70;38.50;;;;;;10519619;28;20263;-74
2023/04/27 12:16:39;;;;;;;6.33;2.70;;;23.60;38.40;;;;;;10515063;28;20772;-74
2023/04/27 12:21:41;;;;;;;16.67;3.47;;;23.60;37.90;;;;;;10501107;28;20227;-74
2023/04/27 12:26:42;;;;;;;7.13;2.50;;;23.40;38.20;;;;;;10514462;28;20306;-74
2023/04/27 12:31:43;;;;;;;6.73;2.77;;;23.20;38.20;;;;;;10518222;28;20220;-74
2023/04/27 12:36:44;;;;;;;7.13;3.13;;;23.00;38.70;;;;;;10500564;28;20223;-73
2023/04/27 12:41:48;;;;;;;9.30;2.87;;;22.60;38.80;;;;;;10494854;28;20636;-75
2023/04/27 12:46:49;;;;;;;6.40;2.40;;;21.70;39.70;;;;;;10505538;28;20214;-73
2023/04/27 12:51:51;;;;;;;7.53;2.40;;;21.70;39.90;;;;;;10527065;28;20214;-73
2023/04/27 12:56:52;;;;;;;5.97;2.30;;;21.80;39.80;;;;;;10506279;28;20242;-74
2023/04/27 13:01:52;;;;;;;3.93;2.20;;;22.10;39.40;;;;;;10491991;28;20231;-75
2023/04/27 13:06:53;;;;;;;7.30;1.90;;;22.20;38.80;;;;;;10517896;28;20210;-73
2023/04/27 13:11:54;;;;;;;6.13;2.70;;;22.00;39.30;;;;;;10493460;28;20250;-73
2023/04/27 13:16:55;;;;;;;6.53;2.13;;;22.00;39.90;;;;;;10522563;28;20369;-74
2023/04/27 13:21:55;;;;;;;5.00;1.87;;;22.00;39.60;;;;;;10505216;28;20238;-74
2023/04/27 13:26:56;;;;;;;6.63;2.70;;;22.10;40.90;;;;;;10509750;28;20223;-73
2023/04/27 13:31:56;;;;;;;4.90;2.33;;;22.00;41.60;;;;;;10496772;28;20246;-74
2023/04/27 13:36:57;;;;;;;2.83;1.87;;;22.10;41.60;;;;;;10500421;28;20221;-74
2023/04/27 13:41:58;;;;;;;3.87;1.73;;;22.20;40.30;;;;;;10508248;28;20236;-74
2023/04/27 13:46:59;;;;;;;4.83;2.17;;;22.00;40.70;;;;;;10496302;28;20270;-74
2023/04/27 13:51:59;;;;;;;4.17;2.10;;;21.70;40.90;;;;;;10508552;28;20306;-74
2023/04/27 13:57:02;;;;;;;4.20;1.77;;;21.20;41.20;;;;;;10513684;28;20697;-74
2023/04/27 14:02:02;;;;;;;8.27;2.73;;;20.80;43.00;;;;;;10495340;28;20280;-74
2023/04/27 14:07:03;;;;;;;4.03;2.00;;;20.40;44.50;;;;;;10514152;28;20260;-74
2023/04/27 14:12:04;;;;;;;7.43;2.20;;;20.10;45.40;;;;;;10503335;28;20375;-74
2023/04/27 14:17:08;;;;;;;4.53;2.37;;;20.00;45.70;;;;;;10505127;28;20385;-75
2023/04/27 14:22:08;;;;;;;5.33;1.97;;;19.90;45.30;;;;;;10496543;28;20242;-75
2023/04/27 14:27:09;;;;;;;5.57;2.20;;;19.70;45.80;;;;;;10487862;28;20234;-75
2023/04/27 14:32:10;;;;;;;7.47;2.00;;;19.60;46.10;;;;;;10514331;28;20229;-75
2023/04/27 14:37:10;;;;;;;5.60;2.43;;;19.60;47.40;;;;;;10487758;28;20226;-75
2023/04/27 14:42:11;;;;;;;3.70;1.90;;;19.60;47.20;;;;;;10495461;28;20225;-74
2023/04/27 14:47:12;;;;;;;7.33;2.07;;;19.50;46.60;;;;;;10503416;28;20218;-74
2023/04/27 14:52:12;;;;;;;7.80;2.20;;;19.30;48.50;;;;;;10512346;28;20230;-75
2023/04/27 14:57:13;;;;;;;5.77;2.10;;;19.30;47.70;;;;;;10505382;28;20226;-74
2023/04/27 15:02:13;;;;;;;4.73;2.23;;;19.20;47.30;;;;;;10494879;28;20224;-74
2023/04/27 15:07:14;;;;;;;3.20;1.73;;;19.10;48.20;;;;;;10512693;28;20237;-74
2023/04/27 15:12:18;;;;;;;4.47;1.83;;;18.80;48.60;;;;;;10493431;28;20226;-74
2023/04/27 15:17:18;;;;;;;4.57;2.00;;;18.70;49.20;;;;;;10519594;28;20573;-73
2023/04/27 15:22:19;;;;;;;3.63;1.53;;;18.80;49.40;;;;;;10508666;28;20249;-74
2023/04/27 15:27:20;;;;;;;5.03;1.80;;;18.90;48.80;;;;;;10506811;28;20298;-74
2023/04/27 15:32:23;;;;;;;4.63;1.70;;;19.20;49.30;;;;;;10511164;28;20241;-71
2023/04/27 15:37:25;;;;;;;4.27;1.93;;;19.30;49.00;;;;;;10515392;28;20708;-71
2023/04/27 15:42:26;;;;;;;5.63;1.87;;;19.40;48.10;;;;;;10508804;28;20786;-70
2023/04/27 15:47:26;;;;;;;5.40;2.00;;;19.30;48.80;;;;;;10522456;28;20222;-74
2023/04/27 15:52:30;;;;;;;8.17;2.03;;;19.00;48.90;;;;;;10495415;28;20614;-73
2023/04/27 15:57:31;;;;;;;4.33;1.70;;;18.90;49.20;;;;;;10521782;28;20725;-73
2023/04/27 16:02:32;;;;;;;4.80;1.93;;;18.90;49.10;;;;;;10519001;28;20238;-73
2023/04/27 16:07:33;;;;;;;6.37;1.87;;;18.80;50.00;;;;;;10499390;28;20706;-73
2023/04/27 16:12:34;;;;;;;3.47;1.57;;;18.70;49.90;;;;;;10523341;28;20322;-74
2023/04/27 16:17:35;;;;;;;3.73;1.93;;;18.70;50.60;;;;;;10502425;28;20330;-73
2023/04/27 16:22:36;;;;;;;7.40;2.00;;;18.60;51.00;;;;;;10492342;28;20686;-74
2023/04/27 16:27:38;;;;;;;3.97;1.70;;;18.50;51.40;;;;;;10514559;28;20309;-74
2023/04/27 16:32:39;;;;;;;4.00;1.63;;;18.50;51.40;;;;;;10485421;28;20227;-73
2023/04/27 16:37:39;;;;;;;5.53;1.80;;;18.50;51.50;;;;;;10507111;28;20275;-73
2023/04/27 16:42:40;;;;;;;4.07;1.57;;;18.50;50.50;;;;;;10495281;28;20230;-74
2023/04/27 16:48:04;;;;;;;4.30;1.93;;;18.40;51.40;;;;;;10496189;28;20223;-74
2023/04/27 16:53:18;;;;;;;5.47;1.77;;;18.30;51.70;;;;;;10468825;28;20221;-73
2023/04/27 16:58:19;;;;;;;4.23;1.80;;;18.20;51.80;;;;;;10498448;28;20225;-73
2023/04/27 17:03:20;;;;;;;5.03;1.60;;;18.10;52.00;;;;;;10516930;28;20215;-74
2023/04/27 17:08:20;;;;;;;4.17;2.10;;;17.90;52.90;;;;;;10498837;28;20266;-74
2023/04/27 17:13:21;;;;;;;6.77;2.07;;;17.70;53.30;;;;;;10500277;28;20220;-74
2023/04/27 17:18:22;;;;;;;3.43;1.80;;;17.50;53.50;;;;;;10515180;28;20240;-71
2023/04/27 17:23:22;;;;;;;4.90;1.73;;;17.40;53.70;;;;;;10494663;28;20225;-75
2023/04/27 17:28:23;;;;;;;2.60;1.87;;;17.30;53.70;;;;;;10524218;28;20219;-75
2023/04/27 17:33:24;;;;;;;2.17;1.63;;;17.20;54.50;;;;;;10515805;28;20222;-74
2023/04/27 17:38:25;;;;;;;4.70;1.93;;;17.20;55.00;;;;;;10489445;28;20221;-75
2023/04/27 17:43:26;;;;;;;4.30;1.63;;;17.20;55.30;;;;;;10496153;28;20222;-75
2023/04/27 17:48:27;;;;;;;4.07;1.90;;;17.10;55.10;;;;;;10504793;28;20724;-74
2023/04/27 17:53:27;;;;;;;3.10;1.70;;;16.90;56.00;;;;;;10508477;28;20246;-75
2023/04/27 17:58:28;;;;;;;4.30;1.83;;;16.80;56.50;;;;;;10502613;28;20224;-75
2023/04/27 18:03:29;;;;;;;7.17;2.30;;;16.60;57.30;;;;;;10490033;28;20643;-75
2023/04/27 18:08:29;;;;;;;7.70;1.63;;;16.40;57.20;;;;;;10519167;28;20223;-75
2023/04/27 18:13:31;;;;;;;6.20;2.10;;;16.30;57.40;;;;;;10491581;28;20221;-75
2023/04/27 18:18:32;;;;;;;3.63;1.83;;;16.10;58.20;;;;;;10503989;28;20223;-75
2023/04/27 18:23:36;;;;;;;4.13;1.80;;;15.90;58.70;;;;;;10492321;28;20227;-74
2023/04/27 18:28:38;;;;;;;6.87;2.43;;;15.80;58.80;;;;;;10505099;28;20225;-74
2023/04/27 18:33:39;;;;;;;4.40;1.83;;;15.70;59.30;;;;;;10505744;28;20220;-74
2023/04/27 18:38:40;;;;;;;6.60;3.90;;;15.60;60.00;;;;;;10493194;28;20223;-73
2023/04/27 18:43:43;;;;;;;6.53;3.60;;;15.60;60.20;;;;;;10515841;28;20226;-75
2023/04/27 18:48:44;;;;;;;4.47;2.23;;;15.50;61.00;;;;;;10494993;28;20232;-73
2023/04/27 18:53:45;;;;;;;4.83;2.30;;;15.40;61.40;;;;;;10506656;28;20217;-75
2023/04/27 18:58:47;;;;;;;6.77;2.33;;;15.40;61.70;;;;;;10484885;28;20256;-75
2023/04/27 19:03:48;;;;;;;7.03;3.00;;;15.40;62.30;;;;;;10500039;28;20225;-73
2023/04/27 19:08:48;;;;;;;7.70;3.70;;;15.30;62.50;;;;;;10500645;28;20229;-73
2023/04/27 19:13:49;;;;;;;4.67;2.67;;;15.30;61.90;;;;;;10499803;28;20294;-73
2023/04/27 19:18:50;;;;;;;5.30;2.30;;;15.40;61.40;;;;;;10494473;28;20227;-73
2023/04/27 19:23:51;;;;;;;6.80;2.50;;;15.40;61.90;;;;;;10512704;28;20217;-72
2023/04/27 19:28:51;;;;;;;3.67;1.93;;;15.30;62.00;;;;;;10502372;28;20330;-74
2023/04/27 19:33:52;;;;;;;7.07;2.60;;;15.30;62.00;;;;;;10508356;28;20233;-74
2023/04/27 19:38:53;;;;;;;4.20;2.00;;;15.20;62.20;;;;;;10500610;28;20225;-72
2023/04/27 19:43:54;;;;;;;3.50;1.93;;;15.20;63.00;;;;;;10522695;28;20214;-74
2023/04/27 19:48:54;;;;;;;4.83;2.50;;;15.10;63.20;;;;;;10482063;28;20313;-74
2023/04/27 19:53:55;;;;;;;5.53;2.10;;;15.00;64.10;;;;;;10511499;28;20230;-73
2023/04/27 19:58:56;;;;;;;4.43;2.40;;;15.00;64.80;;;;;;10498378;28;20227;-74
2023/04/27 20:03:56;;;;;;;4.40;2.30;;;15.00;66.70;;;;;;10525735;28;20221;-72
2023/04/27 20:08:57;;;;;;;6.90;2.20;;;15.00;65.20;;;;;;10489356;28;20226;-69
2023/04/27 20:13:57;;;;;;;4.87;2.53;;;14.90;65.00;;;;;;10514350;28;20301;-71
2023/04/27 20:18:58;;;;;;;4.90;2.57;;;14.90;64.90;;;;;;10510075;28;20285;-71
2023/04/27 20:23:59;;;;;;;4.17;2.50;;;14.80;65.30;;;;;;10526636;28;20795;-71
2023/04/27 20:28:59;;;;;;;5.30;2.30;;;14.80;65.30;;;;;;10493080;28;20215;-70
2023/04/27 20:34:00;;;;;;;5.10;2.77;;;14.70;65.20;;;;;;10515286;28;20229;-73
2023/04/27 20:39:01;;;;;;;5.37;2.93;;;14.70;65.70;;;;;;10507265;28;20206;-70
2023/04/27 20:44:02;;;;;;;3.70;2.30;;;14.70;65.50;;;;;;10507876;28;20242;-71
2023/04/27 20:49:03;;;;;;;5.03;2.33;;;14.70;65.50;;;;;;10523449;28;20218;-69
2023/04/27 20:54:04;;;;;;;7.20;2.53;;;14.70;66.10;;;;;;10500711;28;20211;-71
2023/04/27 20:59:05;;;;;;;2.87;2.20;;;14.70;66.50;;;;;;10520633;28;20230;-68
2023/04/27 21:04:09;;;;;;;3.50;2.30;;;14.60;66.60;;;;;;10506178;28;20223;-69
2023/04/27 21:09:10;;;;;;;5.30;1.97;;;14.50;67.00;;;;;;10511410;28;20230;-76
2023/04/27 21:14:11;;;;;;;4.87;2.57;;;14.50;67.60;;;;;;10503838;28;20234;-70
2023/04/27 21:19:14;;;;;;;3.47;2.37;;;14.40;67.60;;;;;;10485552;28;20346;-71
2023/04/27 21:24:14;;;;;;;6.47;2.30;;;14.30;67.90;;;;;;10498289;28;20218;-71
2023/04/27 21:29:15;;;;;;;4.07;2.30;;;14.30;68.70;;;;;;10525744;28;20225;-70
2023/04/27 21:34:15;;;;;;;4.00;2.43;;;14.30;69.00;;;;;;10482371;28;20782;-70
2023/04/27 21:39:17;;;;;;;5.83;2.50;;;14.30;69.30;;;;;;10529852;28;20231;-71
2023/04/27 21:44:18;;;;;;;6.30;2.20;;;14.30;68.70;;;;;;10517615;28;20359;-72
2023/04/27 21:49:18;;;;;;;4.70;2.73;;;14.30;68.50;;;;;;10519807;28;20324;-71
2023/04/27 21:54:19;;;;;;;5.83;2.57;;;14.30;68.40;;;;;;10516528;28;20677;-72
2023/04/27 21:59:20;;;;;;;3.53;1.63;;;14.30;68.50;;;;;;10496336;28;20710;-73
2023/04/27 22:04:21;;;;;;;2.97;1.73;;;14.30;68.40;;;;;;10517489;28;20214;-74
2023/04/27 22:09:22;;;;;;;4.67;1.73;;;14.30;68.50;;;;;;10497826;28;20226;-72
2023/04/27 22:14:22;;;;;;;6.67;1.80;;;14.30;68.70;;;;;;10508490;28;20218;-73
2023/04/27 22:19:26;;;;;;;6.30;1.37;;;14.30;68.80;;;;;;10519282;28;20219;-74
2023/04/27 22:24:27;;;;;;;6.47;2.30;;;14.30;68.40;;;;;;10515368;28;20306;-74
2023/04/27 22:29:27;;;;;;;6.20;1.80;;;14.30;68.10;;;;;;10512445;28;20313;-68
2023/04/27 22:34:28;;;;;;;3.80;2.13;;;14.30;68.40;;;;;;10496901;28;20215;-69
2023/04/27 22:39:30;;;;;;;6.93;2.03;;;14.30;68.40;;;;;;10510889;28;20227;-69
2023/04/27 22:44:30;;;;;;;4.97;2.03;;;14.20;68.40;;;;;;10518554;28;20234;-69
2023/04/27 22:49:33;;;;;;;3.90;1.67;;;14.30;68.70;;;;;;10514008;28;20217;-70
2023/04/27 22:54:33;;;;;;;3.40;1.63;;;14.20;68.70;;;;;;10494300;28;20222;-69
2023/04/27 22:59:34;;;;;;;2.63;2.07;;;14.30;69.00;;;;;;10509644;28;20246;-70
2023/04/27 23:04:35;;;;;;;3.73;2.60;;;14.30;68.70;;;;;;10498834;28;20222;-72
2023/04/27 23:09:35;;;;;;;4.30;2.30;;;14.30;69.20;;;;;;10497680;28;20249;-72
2023/04/27 23:14:36;;;;;;;2.87;2.10;;;14.30;69.90;;;;;;10513075;28;20221;-71
2023/04/27 23:19:39;;;;;;;4.47;2.20;;;14.20;69.80;;;;;;10512050;28;20585;-72
2023/04/27 23:24:40;;;;;;;4.93;2.20;;;14.10;70.30;;;;;;10502114;28;20219;-73
2023/04/27 23:29:41;;;;;;;4.77;2.50;;;14.00;70.80;;;;;;10505490;28;20589;-71
2023/04/27 23:34:41;;;;;;;2.57;1.67;;;14.00;71.50;;;;;;10500671;28;20230;-70
2023/04/27 23:39:42;;;;;;;3.20;2.00;;;14.00;71.40;;;;;;10506668;28;20727;-73
2023/04/27 23:44:42;;;;;;;6.17;2.17;;;14.10;72.10;;;;;;10503041;28;20301;-70
2023/04/27 23:49:43;;;;;;;6.53;2.60;;;14.10;73.00;;;;;;10518818;28;20227;-69
2023/04/27 23:54:44;;;;;;;5.07;2.50;;;14.10;74.50;;;;;;10478925;28;20483;-69
2023/04/27 23:59:44;;;;;;;5.00;2.40;;;14.10;74.40;;;;;;10487898;28;20231;-69
